createdAt,value
2022-10-31T00:01:29.747Z,73.63
2022-10-31T00:03:57.779Z,73.49
2022-10-31T00:06:26.744Z,73.65
2022-10-31T00:08:57.169Z,73.30
2022-10-31T00:11:25.486Z,73.43
2022-10-31T00:13:54.171Z,73.11
2022-10-31T00:16:24.420Z,73.07
2022-10-31T00:18:54.801Z,73.18
2022-10-31T00:21:23.725Z,73.19
2022-10-31T00:23:51.901Z,73.09
2022-10-31T00:26:20.486Z,73.12
2022-10-31T00:28:48.973Z,72.64
2022-10-31T00:31:17.058Z,72.85
2022-10-31T00:33:45.435Z,72.58
2022-10-31T00:36:18.805Z,72.46
2022-10-31T00:38:48.129Z,72.64
2022-10-31T00:41:18.508Z,72.64
2022-10-31T00:43:47.151Z,72.52
2022-10-31T00:46:15.743Z,72.15
2022-10-31T00:48:43.712Z,72.02
2022-10-31T00:51:11.890Z,72.05
2022-10-31T00:53:39.865Z,72.07
2022-10-31T00:56:08.145Z,72.10
2022-10-31T00:58:36.227Z,71.79
2022-10-31T01:01:05.109Z,71.96
2022-10-31T01:03:35.237Z,71.78
2022-10-31T01:06:06.704Z,71.66
2022-10-31T01:08:36.781Z,71.31
2022-10-31T01:11:18.706Z,71.22
2022-10-31T01:13:46.960Z,71.13
2022-10-31T01:16:18.366Z,71.06
2022-10-31T01:18:47.029Z,70.82
2022-10-31T01:21:24.008Z,70.56
2022-10-31T01:23:54.751Z,70.59
2022-10-31T01:26:31.488Z,70.40
2022-10-31T01:29:05.898Z,70.73
2022-10-31T01:31:40.358Z,70.48
2022-10-31T01:34:09.456Z,70.37
2022-10-31T01:36:39.076Z,70.14
2022-10-31T01:39:10.854Z,70.25
2022-10-31T01:41:41.666Z,70.18
2022-10-31T01:44:16.244Z,70.07
2022-10-31T01:46:50.918Z,70.14
2022-10-31T01:49:25.135Z,69.81
2022-10-31T01:51:58.039Z,70.04
2022-10-31T01:54:33.394Z,69.97
2022-10-31T01:57:03.891Z,69.81
2022-10-31T01:59:38.135Z,69.88
2022-10-31T02:02:07.363Z,69.73
2022-10-31T02:04:36.331Z,69.91
2022-10-31T02:07:08.734Z,69.78
2022-10-31T02:09:38.501Z,70.18
2022-10-31T02:12:08.247Z,70.04
2022-10-31T02:14:37.512Z,70.01
2022-10-31T02:17:05.473Z,70.18
2022-10-31T02:20:00.995Z,70.16
2022-10-31T02:22:45.748Z,70.08
2022-10-31T02:25:55.172Z,70.14
2022-10-31T02:28:32.037Z,70.10
2022-10-31T02:31:11.553Z,69.95
2022-10-31T02:33:44.873Z,70.30
2022-10-31T02:36:18.945Z,70.25
2022-10-31T02:38:58.078Z,70.41
2022-10-31T02:41:33.355Z,70.54
2022-10-31T02:44:29.570Z,70.59
2022-10-31T02:47:17.606Z,70.39
2022-10-31T02:49:56.013Z,70.50
2022-10-31T02:52:29.613Z,70.48
2022-10-31T02:54:58.515Z,70.45
2022-10-31T02:57:34.927Z,70.28
2022-10-31T03:00:06.603Z,70.29
2022-10-31T03:02:53.236Z,70.32
2022-10-31T03:05:24.179Z,70.24
2022-10-31T03:08:16.544Z,70.54
2022-10-31T03:11:00.811Z,70.76
2022-10-31T03:14:12.633Z,70.58
2022-10-31T03:17:03.321Z,70.76
2022-10-31T03:19:39.688Z,71.04
2022-10-31T03:22:25.709Z,70.90
2022-10-31T03:24:56.214Z,70.91
2022-10-31T03:27:28.104Z,71.14
2022-10-31T03:30:03.987Z,71.07
2022-10-31T03:32:44.608Z,71.05
2022-10-31T03:35:23.189Z,71.19
2022-10-31T03:37:55.305Z,71.15
2022-10-31T03:43:34.440Z,71.21
2022-10-31T03:46:02.974Z,71.15
2022-10-31T03:48:31.154Z,71.14
2022-10-31T03:51:12.126Z,71.15
2022-10-31T03:53:47.415Z,71.16
2022-10-31T03:56:38.593Z,71.24
2022-10-31T03:59:12.580Z,71.18
2022-10-31T04:01:45.821Z,71.18
2022-10-31T04:04:14.972Z,71.20
2022-10-31T04:06:45.813Z,71.14
2022-10-31T04:09:15.143Z,71.25
2022-10-31T04:11:49.597Z,71.39
2022-10-31T04:14:17.616Z,71.37
2022-10-31T04:16:45.790Z,71.35
2022-10-31T04:19:15.817Z,71.43
2022-10-31T04:21:43.887Z,71.38
2022-10-31T04:24:12.378Z,71.49
2022-10-31T04:26:40.449Z,71.49
2022-10-31T04:29:08.424Z,71.49
2022-10-31T04:31:36.294Z,71.36
2022-10-31T04:34:04.276Z,71.42
2022-10-31T04:36:32.449Z,71.29
2022-10-31T04:39:00.252Z,71.05
2022-10-31T04:41:28.396Z,71.16
2022-10-31T04:43:56.673Z,71.24
2022-10-31T04:46:24.959Z,71.18
2022-10-31T04:48:52.927Z,71.03
2022-10-31T04:51:20.900Z,71.11
2022-10-31T04:53:49.079Z,71.16
2022-10-31T04:56:17.053Z,71.12
2022-10-31T04:58:45.128Z,71.23
2022-10-31T05:01:13.836Z,71.12
2022-10-31T05:03:41.998Z,71.20
2022-10-31T05:06:10.072Z,71.16
2022-10-31T05:08:38.002Z,71.17
2022-10-31T05:11:06.535Z,71.04
2022-10-31T05:13:34.506Z,71.26
2022-10-31T05:16:02.380Z,71.27
2022-10-31T05:18:30.661Z,71.26
2022-10-31T05:20:58.632Z,71.38
2022-10-31T05:23:26.504Z,71.29
2022-10-31T05:25:54.579Z,71.30
2022-10-31T05:28:22.450Z,71.37
2022-10-31T05:30:51.039Z,71.39
2022-10-31T05:33:19.319Z,71.39
2022-10-31T05:35:47.295Z,71.41
2022-10-31T05:38:15.573Z,71.47
2022-10-31T05:40:43.766Z,71.55
2022-10-31T05:43:12.441Z,71.69
2022-10-31T05:45:40.727Z,71.69
2022-10-31T05:48:09.432Z,71.73
2022-10-31T05:50:37.284Z,71.74
2022-10-31T05:53:06.598Z,71.70
2022-10-31T05:55:34.782Z,71.72
2022-10-31T05:58:03.385Z,71.85
2022-10-31T06:00:31.755Z,71.93
2022-10-31T06:03:05.698Z,71.95
2022-10-31T06:05:34.074Z,72.00
2022-10-31T06:08:02.478Z,72.03
2022-10-31T06:10:31.073Z,72.02
2022-10-31T06:12:58.978Z,71.97
2022-10-31T06:15:26.846Z,72.03
2022-10-31T06:18:06.834Z,72.07
2022-10-31T06:20:35.280Z,72.11
2022-10-31T06:23:04.358Z,72.13
2022-10-31T06:25:33.294Z,72.11
2022-10-31T06:28:01.351Z,72.21
2022-10-31T06:30:29.525Z,72.23
2022-10-31T06:33:03.822Z,72.23
2022-10-31T06:35:32.430Z,72.24
2022-10-31T06:38:00.788Z,72.18
2022-10-31T06:40:29.403Z,72.22
2022-10-31T06:43:02.092Z,72.19
2022-10-31T06:45:30.775Z,72.11
2022-10-31T06:50:46.983Z,72.02
2022-10-31T06:53:15.618Z,72.00
2022-10-31T06:55:43.852Z,72.00
2022-10-31T06:58:12.563Z,71.96
2022-10-31T07:00:40.714Z,71.91
2022-10-31T07:03:12.897Z,71.98
2022-10-31T07:05:41.478Z,72.06
2022-10-31T07:08:19.086Z,72.13
2022-10-31T07:10:54.515Z,72.11
2022-10-31T07:13:23.406Z,72.13
2022-10-31T07:15:51.791Z,72.00
2022-10-31T07:18:20.479Z,71.83
2022-10-31T07:20:49.173Z,71.64
2022-10-31T07:23:17.040Z,71.51
2022-10-31T07:25:45.320Z,71.43
2022-10-31T07:28:13.708Z,71.27
2022-10-31T07:30:41.780Z,71.21
2022-10-31T07:33:10.265Z,71.15
2022-10-31T07:35:38.239Z,71.08
2022-10-31T07:38:14.093Z,70.93
2022-10-31T07:40:43.517Z,70.88
2022-10-31T07:43:14.429Z,70.80
2022-10-31T07:45:43.545Z,70.72
2022-10-31T07:48:11.513Z,70.69
2022-10-31T07:50:39.489Z,70.67
2022-10-31T07:53:11.149Z,70.43
2022-10-31T07:55:39.863Z,70.44
2022-10-31T07:58:16.462Z,70.41
2022-10-31T08:00:47.436Z,70.28
2022-10-31T08:03:19.214Z,70.26
2022-10-31T08:05:48.070Z,70.03
2022-10-31T08:08:16.564Z,69.91
2022-10-31T08:10:44.560Z,69.85
2022-10-31T08:13:14.339Z,69.84
2022-10-31T08:15:42.656Z,69.72
2022-10-31T08:18:14.814Z,69.73
2022-10-31T08:20:43.621Z,69.63
2022-10-31T08:23:13.742Z,69.23
2022-10-31T08:25:42.228Z,68.99
2022-10-31T08:28:12.278Z,68.78
2022-10-31T08:30:42.169Z,68.52
2022-10-31T08:33:15.564Z,68.30
2022-10-31T08:35:44.667Z,67.99
2022-10-31T08:38:13.979Z,67.62
2022-10-31T08:40:42.145Z,67.39
2022-10-31T08:43:14.428Z,67.07
2022-10-31T08:45:43.723Z,66.75
2022-10-31T08:48:14.569Z,66.49
2022-10-31T08:50:43.731Z,66.30
2022-10-31T08:53:20.127Z,66.21
2022-10-31T08:55:48.412Z,66.05
2022-10-31T08:58:19.780Z,65.64
2022-10-31T09:00:53.107Z,65.27
2022-10-31T09:03:31.668Z,64.94
2022-10-31T09:06:01.956Z,64.58
2022-10-31T09:08:31.679Z,64.22
2022-10-31T09:11:00.091Z,64.03
2022-10-31T09:13:28.576Z,63.72
2022-10-31T09:15:58.708Z,63.50
2022-10-31T09:18:27.190Z,63.40
2022-10-31T09:20:55.464Z,63.16
2022-10-31T09:23:24.261Z,63.07
2022-10-31T09:25:53.973Z,62.95
2022-10-31T09:28:23.993Z,63.02
2022-10-31T09:30:54.633Z,63.03
2022-10-31T09:33:22.817Z,62.86
2022-10-31T09:35:51.096Z,62.76
2022-10-31T09:38:21.615Z,62.82
2022-10-31T09:41:05.960Z,62.74
2022-10-31T09:44:15.179Z,62.69
2022-10-31T09:47:01.987Z,62.53
2022-10-31T09:49:42.757Z,62.02
2022-10-31T09:52:34.474Z,61.77
2022-10-31T09:55:32.834Z,61.78
2022-10-31T09:58:02.175Z,61.72
2022-10-31T10:00:30.781Z,61.64
2022-10-31T10:03:12.712Z,61.76
2022-10-31T10:05:54.810Z,61.89
2022-10-31T10:08:28.306Z,61.85
2022-10-31T10:11:10.067Z,61.73
2022-10-31T10:13:48.960Z,61.56
2022-10-31T10:16:28.908Z,61.42
2022-10-31T10:19:16.090Z,61.00
2022-10-31T10:21:58.813Z,60.35
2022-10-31T10:24:51.923Z,60.35
2022-10-31T10:27:47.648Z,60.07
2022-10-31T10:30:21.956Z,59.91
2022-10-31T10:32:58.621Z,59.67
2022-10-31T10:35:48.707Z,59.30
2022-10-31T10:38:16.786Z,58.80
2022-10-31T10:40:45.269Z,58.24
2022-10-31T10:43:21.705Z,58.10
2022-10-31T10:46:12.177Z,57.56
2022-10-31T10:48:56.877Z,57.57
2022-10-31T10:54:40.616Z,58.18
2022-10-31T10:57:30.181Z,58.78
2022-10-31T11:00:01.963Z,59.16
2022-10-31T11:02:33.584Z,59.59
2022-10-31T11:05:03.575Z,60.11
2022-10-31T11:07:40.086Z,60.33
2022-10-31T11:10:14.574Z,60.40
2022-10-31T11:12:47.042Z,60.52
2022-10-31T11:15:39.078Z,60.72
2022-10-31T11:18:21.871Z,60.96
2022-10-31T11:20:59.088Z,61.20
2022-10-31T11:23:29.655Z,61.34
2022-10-31T11:26:05.080Z,61.55
2022-10-31T11:28:34.942Z,61.79
2022-10-31T11:31:14.329Z,62.06
2022-10-31T11:33:45.076Z,62.17
2022-10-31T11:36:23.266Z,62.00
2022-10-31T11:38:52.678Z,61.67
2022-10-31T11:41:50.536Z,61.51
2022-10-31T11:44:30.138Z,61.32
2022-10-31T11:47:01.714Z,61.24
2022-10-31T11:49:49.665Z,61.32
2022-10-31T11:52:23.158Z,61.12
2022-10-31T11:55:01.978Z,60.80
2022-10-31T11:57:31.693Z,60.64
2022-10-31T12:00:02.105Z,60.25
2022-10-31T12:02:30.407Z,60.11
2022-10-31T12:05:19.372Z,60.33
2022-10-31T12:07:48.246Z,59.92
2022-10-31T12:10:17.287Z,59.38
2022-10-31T12:13:03.991Z,59.27
2022-10-31T12:15:51.259Z,59.01
2022-10-31T12:18:34.700Z,58.39
2022-10-31T12:21:27.528Z,58.49
2022-10-31T12:24:10.959Z,58.26
2022-10-31T12:27:04.820Z,58.43
2022-10-31T12:29:52.159Z,58.33
2022-10-31T12:32:39.656Z,58.42
2022-10-31T12:35:18.061Z,58.72
2022-10-31T12:37:48.905Z,59.01
2022-10-31T12:40:22.714Z,59.07
2022-10-31T12:42:53.648Z,58.76
2022-10-31T12:45:36.978Z,58.88
2022-10-31T12:48:20.093Z,59.22
2022-10-31T12:51:21.944Z,59.30
2022-10-31T12:54:11.916Z,59.48
2022-10-31T12:57:00.979Z,59.75
2022-10-31T12:59:41.117Z,60.39
2022-10-31T13:02:29.054Z,60.89
2022-10-31T13:05:12.818Z,61.29
2022-10-31T13:08:06.433Z,61.86
2022-10-31T13:10:43.151Z,62.48
2022-10-31T13:13:25.001Z,62.90
2022-10-31T13:15:59.346Z,63.19
2022-10-31T13:18:37.041Z,63.42
2022-10-31T13:21:11.482Z,63.37
2022-10-31T13:23:50.968Z,63.32
2022-10-31T13:26:41.360Z,63.31
2022-10-31T13:29:32.833Z,63.09
2022-10-31T13:32:05.977Z,62.77
2022-10-31T13:34:36.900Z,62.47
2022-10-31T13:37:25.040Z,61.95
2022-10-31T13:40:30.679Z,61.82
2022-10-31T13:43:11.636Z,61.65
2022-10-31T13:45:50.568Z,61.96
2022-10-31T13:48:21.296Z,62.31
2022-10-31T13:51:08.600Z,62.79
2022-10-31T13:53:57.236Z,63.38
2022-10-31T13:56:32.702Z,63.81
2022-10-31T13:59:09.991Z,64.05
2022-10-31T14:01:51.210Z,64.42
2022-10-31T14:04:25.331Z,64.67
2022-10-31T14:06:54.067Z,64.63
2022-10-31T14:09:35.684Z,64.51
2022-10-31T14:12:08.381Z,64.57
2022-10-31T14:14:48.898Z,64.55
2022-10-31T14:17:21.573Z,64.39
2022-10-31T14:20:12.165Z,64.28
2022-10-31T14:22:43.028Z,64.37
2022-10-31T14:25:35.636Z,64.67
2022-10-31T14:28:20.854Z,64.92
2022-10-31T14:30:57.760Z,65.13
2022-10-31T14:33:29.240Z,65.31
2022-10-31T14:36:59.221Z,65.60
2022-10-31T14:40:02.506Z,65.97
2022-10-31T14:42:48.383Z,66.44
2022-10-31T14:45:31.095Z,66.73
2022-10-31T14:48:06.884Z,66.88
2022-10-31T14:50:43.752Z,67.09
2022-10-31T14:53:30.521Z,67.29
2022-10-31T14:56:02.847Z,67.34
2022-10-31T14:58:42.082Z,67.52
2022-10-31T15:01:24.928Z,67.70
2022-10-31T15:04:21.879Z,67.64
2022-10-31T15:06:49.029Z,67.75
2022-10-31T15:09:31.737Z,68.09
2022-10-31T15:12:32.593Z,68.10
2022-10-31T15:15:22.743Z,68.18
2022-10-31T15:17:53.716Z,68.12
2022-10-31T15:20:25.627Z,68.14
2022-10-31T15:22:57.003Z,68.37
2022-10-31T15:25:27.197Z,68.40
2022-10-31T15:27:55.302Z,68.47
2022-10-31T15:30:28.802Z,68.66
2022-10-31T15:32:59.058Z,68.67
2022-10-31T15:35:30.215Z,68.78
2022-10-31T15:37:59.968Z,68.94
2022-10-31T15:40:28.572Z,69.24
2022-10-31T15:43:00.387Z,69.40
2022-10-31T15:45:29.493Z,69.50
2022-10-31T15:48:00.716Z,69.69
2022-10-31T15:50:42.312Z,69.80
2022-10-31T15:53:38.722Z,69.90
2022-10-31T15:56:10.939Z,70.03
2022-10-31T15:58:48.428Z,70.11
2022-10-31T16:01:30.826Z,70.22
2022-10-31T16:04:07.188Z,70.23
2022-10-31T16:06:35.936Z,70.32
2022-10-31T16:09:21.894Z,70.38
2022-10-31T16:11:50.731Z,70.55
2022-10-31T16:14:26.344Z,70.77
2022-10-31T16:16:58.193Z,70.75
2022-10-31T16:19:31.807Z,70.88
2022-10-31T16:22:41.118Z,70.98
2022-10-31T16:25:20.265Z,71.12
2022-10-31T16:27:57.201Z,71.24
2022-10-31T16:30:48.234Z,71.32
2022-10-31T16:33:33.690Z,71.48
2022-10-31T16:36:15.685Z,71.55
2022-10-31T16:38:50.719Z,71.71
2022-10-31T16:41:18.895Z,71.79
2022-10-31T16:43:52.196Z,71.86
2022-10-31T16:46:24.935Z,71.90
2022-10-31T16:48:53.866Z,71.93
2022-10-31T16:51:22.062Z,72.01
2022-10-31T16:53:53.857Z,72.11
2022-10-31T16:56:29.339Z,72.28
2022-10-31T16:58:57.498Z,72.33
2022-10-31T17:01:25.705Z,72.51
2022-10-31T17:03:53.793Z,72.60
2022-10-31T17:06:21.863Z,72.81
2022-10-31T17:08:49.833Z,72.98
2022-10-31T17:11:22.372Z,73.00
2022-10-31T17:13:50.305Z,73.06
2022-10-31T17:16:18.564Z,73.11
2022-10-31T17:18:46.641Z,73.19
2022-10-31T17:21:25.047Z,73.26
2022-10-31T17:23:53.437Z,73.34
2022-10-31T17:26:21.921Z,73.40
2022-10-31T17:28:49.897Z,73.51
2022-10-31T17:31:23.886Z,73.55
2022-10-31T17:33:57.310Z,73.52
2022-10-31T17:36:29.985Z,73.59
2022-10-31T17:38:58.174Z,73.67
2022-10-31T17:41:26.238Z,73.69
2022-10-31T17:43:59.029Z,73.68
2022-10-31T17:46:27.611Z,73.77
2022-10-31T17:48:55.685Z,73.97
2022-10-31T17:51:23.981Z,73.92
2022-10-31T17:53:51.928Z,74.10
2022-10-31T17:56:19.927Z,74.14
2022-10-31T17:58:47.992Z,74.17
2022-10-31T18:01:18.044Z,74.30
2022-10-31T18:03:46.192Z,74.54
2022-10-31T18:06:14.269Z,74.70
2022-10-31T18:08:43.814Z,74.53
2022-10-31T18:11:16.358Z,74.45
2022-10-31T18:13:44.340Z,74.32
2022-10-31T18:16:15.887Z,74.15
2022-10-31T18:18:43.853Z,74.06
2022-10-31T18:21:11.829Z,74.09
2022-10-31T18:23:40.213Z,74.23
2022-10-31T18:26:08.183Z,74.33
2022-10-31T18:28:38.889Z,74.32
2022-10-31T18:31:08.342Z,74.35
2022-10-31T18:33:36.421Z,74.39
2022-10-31T18:36:08.471Z,74.45
2022-10-31T18:38:41.151Z,74.45
2022-10-31T18:41:09.637Z,74.46
2022-10-31T18:43:38.021Z,74.51
2022-10-31T18:46:09.031Z,74.53
2022-10-31T18:48:37.444Z,74.48
2022-10-31T18:51:06.859Z,74.51
2022-10-31T18:53:35.616Z,74.50
2022-10-31T18:56:08.622Z,74.47
2022-10-31T18:58:37.198Z,74.51
2022-10-31T19:01:10.376Z,74.58
2022-10-31T19:03:39.212Z,74.68
2022-10-31T19:06:08.663Z,74.70
2022-10-31T19:08:38.313Z,74.68
2022-10-31T19:11:08.594Z,74.72
2022-10-31T19:13:37.827Z,74.78
2022-10-31T19:16:14.733Z,74.84
2022-10-31T19:18:44.068Z,74.80
2022-10-31T19:21:17.057Z,74.83
2022-10-31T19:23:45.924Z,74.81
2022-10-31T19:26:15.062Z,74.81
2022-10-31T19:28:43.100Z,74.82
2022-10-31T19:31:11.375Z,74.86
2022-10-31T19:33:39.761Z,74.85
2022-10-31T19:36:16.032Z,74.83
2022-10-31T19:38:45.681Z,74.83
2022-10-31T19:41:16.008Z,74.87
2022-10-31T19:43:44.242Z,74.87
2022-10-31T19:46:22.144Z,74.88
2022-10-31T19:48:50.737Z,74.93
2022-10-31T19:51:21.413Z,74.93
2022-10-31T19:53:49.543Z,74.98
2022-10-31T19:56:21.604Z,75.00
2022-10-31T19:58:49.990Z,75.00
2022-10-31T20:01:21.093Z,75.08
2022-10-31T20:03:50.355Z,75.06
2022-10-31T20:06:30.918Z,75.10
2022-10-31T20:09:01.390Z,75.10
2022-10-31T20:11:30.738Z,75.05
2022-10-31T20:13:59.524Z,75.04
2022-10-31T20:16:28.931Z,75.01
2022-10-31T20:18:57.109Z,74.99
2022-10-31T20:21:28.010Z,74.94
2022-10-31T20:23:57.458Z,74.94
2022-10-31T20:26:26.455Z,74.94
2022-10-31T20:28:58.931Z,74.87
2022-10-31T20:31:31.000Z,74.90
2022-10-31T20:33:59.041Z,74.88
2022-10-31T20:36:27.221Z,74.96
2022-10-31T20:38:55.331Z,74.96
2022-10-31T20:41:23.816Z,75.00
2022-10-31T20:43:51.787Z,75.04
2022-10-31T20:46:22.166Z,75.09
2022-10-31T20:48:50.978Z,75.13
2022-10-31T20:51:24.157Z,75.22
2022-10-31T20:53:54.082Z,75.18
2022-10-31T20:56:24.343Z,75.22
2022-10-31T20:58:54.154Z,75.21
2022-10-31T21:01:28.228Z,75.22
2022-10-31T21:03:56.869Z,75.25
2022-10-31T21:06:25.754Z,75.27
2022-10-31T21:08:54.152Z,75.26
2022-10-31T21:11:24.801Z,75.32
2022-10-31T21:13:53.262Z,75.34
2022-10-31T21:16:30.362Z,75.35
2022-10-31T21:19:00.608Z,75.40
2022-10-31T21:21:34.511Z,75.50
2022-10-31T21:24:08.272Z,75.82
2022-10-31T21:26:39.608Z,76.06
2022-10-31T21:29:09.865Z,76.02
2022-10-31T21:31:39.077Z,76.05
2022-10-31T21:34:07.646Z,76.08
2022-10-31T21:36:36.141Z,76.03
2022-10-31T21:39:06.626Z,75.98
2022-10-31T21:41:35.257Z,76.05
2022-10-31T21:44:03.530Z,76.32
2022-10-31T21:46:33.462Z,76.49
2022-10-31T21:49:03.577Z,76.50
2022-10-31T21:51:35.636Z,76.45
2022-10-31T21:54:03.917Z,76.41
2022-10-31T21:56:32.828Z,76.47
2022-10-31T21:59:01.169Z,76.44
2022-10-31T22:01:30.192Z,76.39
2022-10-31T22:04:00.320Z,76.30
2022-10-31T22:06:28.769Z,76.32
2022-10-31T22:08:59.545Z,76.37
2022-10-31T22:11:27.819Z,76.29
2022-10-31T22:13:58.555Z,76.27
2022-10-31T22:16:28.057Z,76.31
2022-10-31T22:18:58.571Z,76.39
2022-10-31T22:21:28.130Z,76.38
2022-10-31T22:24:01.802Z,76.34
2022-10-31T22:26:33.399Z,76.34
2022-10-31T22:29:04.131Z,76.42
2022-10-31T22:31:33.304Z,76.51
2022-10-31T22:34:01.584Z,76.58
2022-10-31T22:36:30.994Z,76.82
2022-10-31T22:39:00.058Z,76.79
2022-10-31T22:41:31.033Z,76.69
2022-10-31T22:44:00.029Z,76.73
2022-10-31T22:46:30.404Z,76.87
2022-10-31T22:49:01.453Z,76.89
2022-10-31T22:51:32.483Z,76.99
2022-10-31T22:54:00.724Z,76.85
2022-10-31T22:56:31.975Z,76.85
2022-10-31T22:59:01.281Z,76.91
2022-10-31T23:01:32.010Z,76.92
2022-10-31T23:04:01.857Z,76.82
2022-10-31T23:06:32.090Z,76.81
2022-10-31T23:09:01.664Z,76.79
2022-10-31T23:11:40.258Z,76.79
2022-10-31T23:14:12.177Z,76.73
2022-10-31T23:16:45.347Z,76.64
2022-10-31T23:19:19.346Z,76.67
2022-10-31T23:21:50.106Z,76.64
2022-10-31T23:24:18.160Z,76.59
2022-10-31T23:26:46.131Z,76.59
2022-10-31T23:29:14.242Z,76.58
2022-10-31T23:31:42.488Z,76.70
2022-10-31T23:34:10.972Z,76.55
2022-10-31T23:36:39.151Z,76.62
2022-10-31T23:39:07.226Z,76.52
2022-10-31T23:41:35.202Z,76.53
2022-10-31T23:44:03.277Z,76.53
2022-10-31T23:46:31.355Z,76.58
2022-10-31T23:48:59.327Z,76.60
2022-10-31T23:51:27.301Z,76.64
2022-10-31T23:53:55.274Z,76.65
2022-10-31T23:56:23.247Z,76.64
2022-10-31T23:58:51.551Z,76.57
